sensor_id;sensor_type;location;lat;lon;timestamp;P1;durP1;ratioP1;P2;durP2;ratioP2
10293;SDS011;5192;50.328;7.610;2023-09-12T00:01:04;15.35;;;8.60;;
10293;SDS011;5192;50.328;7.610;2023-09-12T00:03:32;14.88;;;8.25;;
10293;SDS011;5192;50.328;7.610;2023-09-12T00:06:00;13.45;;;8.50;;
10293;SDS011;5192;50.328;7.610;2023-09-12T00:08:28;12.48;;;8.13;;
10293;SDS011;5192;50.328;7.610;2023-09-12T00:13:40;15.68;;;9.13;;
10293;SDS011;5192;50.328;7.610;2023-09-12T00:16:08;15.43;;;10.00;;
10293;SDS011;5192;50.328;7.610;2023-09-12T00:18:38;16.05;;;9.57;;
10293;SDS011;5192;50.328;7.610;2023-09-12T00:21:04;11.27;;;8.60;;
10293;SDS011;5192;50.328;7.610;2023-09-12T00:23:32;14.68;;;9.57;;
10293;SDS011;5192;50.328;7.610;2023-09-12T00:25:58;14.85;;;9.77;;
10293;SDS011;5192;50.328;7.610;2023-09-12T00:28:27;18.38;;;9.65;;
10293;SDS011;5192;50.328;7.610;2023-09-12T00:30:53;11.77;;;9.27;;
10293;SDS011;5192;50.328;7.610;2023-09-12T00:33:21;15.25;;;10.02;;
10293;SDS011;5192;50.328;7.610;2023-09-12T00:35:47;16.05;;;10.13;;
10293;SDS011;5192;50.328;7.610;2023-09-12T00:38:13;15.27;;;9.88;;
10293;SDS011;5192;50.328;7.610;2023-09-12T00:40:42;14.52;;;10.35;;
10293;SDS011;5192;50.328;7.610;2023-09-12T00:43:07;13.55;;;9.98;;
10293;SDS011;5192;50.328;7.610;2023-09-12T00:45:36;11.20;;;9.88;;
10293;SDS011;5192;50.328;7.610;2023-09-12T00:48:04;12.98;;;10.55;;
10293;SDS011;5192;50.328;7.610;2023-09-12T00:50:32;15.02;;;10.80;;
10293;SDS011;5192;50.328;7.610;2023-09-12T00:53:02;13.05;;;9.25;;
10293;SDS011;5192;50.328;7.610;2023-09-12T00:55:29;14.55;;;10.23;;
10293;SDS011;5192;50.328;7.610;2023-09-12T00:58:00;14.98;;;10.15;;
10293;SDS011;5192;50.328;7.610;2023-09-12T01:00:28;13.77;;;9.68;;
10293;SDS011;5192;50.328;7.610;2023-09-12T01:02:57;11.80;;;9.57;;
10293;SDS011;5192;50.328;7.610;2023-09-12T01:05:23;12.32;;;9.90;;
10293;SDS011;5192;50.328;7.610;2023-09-12T01:07:52;13.57;;;10.52;;
10293;SDS011;5192;50.328;7.610;2023-09-12T01:10:18;13.55;;;9.82;;
10293;SDS011;5192;50.328;7.610;2023-09-12T01:12:44;13.48;;;10.82;;
10293;SDS011;5192;50.328;7.610;2023-09-12T01:15:12;12.82;;;10.90;;
10293;SDS011;5192;50.328;7.610;2023-09-12T01:17:41;12.68;;;11.00;;
10293;SDS011;5192;50.328;7.610;2023-09-12T01:20:16;11.68;;;10.20;;
10293;SDS011;5192;50.328;7.610;2023-09-12T01:23:11;11.77;;;10.55;;
10293;SDS011;5192;50.328;7.610;2023-09-12T01:29:04;12.32;;;10.95;;
10293;SDS011;5192;50.328;7.610;2023-09-12T01:31:32;15.77;;;11.45;;
10293;SDS011;5192;50.328;7.610;2023-09-12T01:34:19;11.63;;;10.27;;
10293;SDS011;5192;50.328;7.610;2023-09-12T01:36:46;15.32;;;11.10;;
10293;SDS011;5192;50.328;7.610;2023-09-12T01:39:13;11.63;;;10.27;;
10293;SDS011;5192;50.328;7.610;2023-09-12T01:41:42;11.98;;;10.77;;
10293;SDS011;5192;50.328;7.610;2023-09-12T01:44:14;12.65;;;11.40;;
10293;SDS011;5192;50.328;7.610;2023-09-12T01:46:42;13.10;;;11.30;;
10293;SDS011;5192;50.328;7.610;2023-09-12T01:49:10;14.38;;;11.48;;
10293;SDS011;5192;50.328;7.610;2023-09-12T01:51:39;17.23;;;12.05;;
10293;SDS011;5192;50.328;7.610;2023-09-12T01:54:04;12.65;;;11.32;;
10293;SDS011;5192;50.328;7.610;2023-09-12T01:56:34;15.48;;;11.10;;
10293;SDS011;5192;50.328;7.610;2023-09-12T01:59:00;13.88;;;11.40;;
10293;SDS011;5192;50.328;7.610;2023-09-12T02:01:29;13.80;;;11.38;;
10293;SDS011;5192;50.328;7.610;2023-09-12T02:03:55;12.80;;;10.82;;
10293;SDS011;5192;50.328;7.610;2023-09-12T02:06:23;15.27;;;10.98;;
10293;SDS011;5192;50.328;7.610;2023-09-12T02:08:49;14.90;;;12.00;;
10293;SDS011;5192;50.328;7.610;2023-09-12T02:11:17;15.05;;;11.07;;
10293;SDS011;5192;50.328;7.610;2023-09-12T02:13:42;13.38;;;10.75;;
10293;SDS011;5192;50.328;7.610;2023-09-12T02:16:08;14.48;;;11.45;;
10293;SDS011;5192;50.328;7.610;2023-09-12T02:18:36;12.90;;;11.50;;
10293;SDS011;5192;50.328;7.610;2023-09-12T02:21:01;14.02;;;10.85;;
10293;SDS011;5192;50.328;7.610;2023-09-12T02:23:30;15.73;;;10.77;;
10293;SDS011;5192;50.328;7.610;2023-09-12T02:25:55;13.90;;;11.38;;
10293;SDS011;5192;50.328;7.610;2023-09-12T02:28:25;14.60;;;11.13;;
10293;SDS011;5192;50.328;7.610;2023-09-12T02:30:55;13.68;;;10.88;;
10293;SDS011;5192;50.328;7.610;2023-09-12T02:33:23;14.35;;;11.45;;
10293;SDS011;5192;50.328;7.610;2023-09-12T02:35:49;15.02;;;12.25;;
10293;SDS011;5192;50.328;7.610;2023-09-12T02:38:17;15.93;;;13.05;;
10293;SDS011;5192;50.328;7.610;2023-09-12T02:40:44;15.75;;;12.52;;
10293;SDS011;5192;50.328;7.610;2023-09-12T02:43:10;14.57;;;12.15;;
10293;SDS011;5192;50.328;7.610;2023-09-12T02:45:36;13.35;;;12.00;;
10293;SDS011;5192;50.328;7.610;2023-09-12T02:48:03;12.98;;;11.55;;
10293;SDS011;5192;50.328;7.610;2023-09-12T02:50:32;15.13;;;12.35;;
10293;SDS011;5192;50.328;7.610;2023-09-12T02:52:59;14.65;;;12.38;;
10293;SDS011;5192;50.328;7.610;2023-09-12T02:55:27;17.35;;;12.43;;
10293;SDS011;5192;50.328;7.610;2023-09-12T02:57:53;18.42;;;12.45;;
10293;SDS011;5192;50.328;7.610;2023-09-12T03:00:19;15.40;;;11.90;;
10293;SDS011;5192;50.328;7.610;2023-09-12T03:02:47;16.77;;;11.95;;
10293;SDS011;5192;50.328;7.610;2023-09-12T03:05:14;14.85;;;12.48;;
10293;SDS011;5192;50.328;7.610;2023-09-12T03:07:40;16.52;;;13.68;;
10293;SDS011;5192;50.328;7.610;2023-09-12T03:10:07;17.45;;;13.73;;
10293;SDS011;5192;50.328;7.610;2023-09-12T03:12:37;15.43;;;13.88;;
10293;SDS011;5192;50.328;7.610;2023-09-12T03:15:03;17.70;;;13.77;;
10293;SDS011;5192;50.328;7.610;2023-09-12T03:17:31;16.48;;;13.68;;
10293;SDS011;5192;50.328;7.610;2023-09-12T03:19:57;17.20;;;13.05;;
10293;SDS011;5192;50.328;7.610;2023-09-12T03:22:26;16.85;;;13.77;;
10293;SDS011;5192;50.328;7.610;2023-09-12T03:24:53;20.52;;;14.98;;
10293;SDS011;5192;50.328;7.610;2023-09-12T03:27:19;16.73;;;14.63;;
10293;SDS011;5192;50.328;7.610;2023-09-12T03:29:47;17.40;;;14.48;;
10293;SDS011;5192;50.328;7.610;2023-09-12T03:32:13;16.83;;;15.13;;
10293;SDS011;5192;50.328;7.610;2023-09-12T03:34:40;17.95;;;15.52;;
10293;SDS011;5192;50.328;7.610;2023-09-12T03:37:07;17.27;;;15.43;;
10293;SDS011;5192;50.328;7.610;2023-09-12T03:39:33;16.85;;;13.05;;
10293;SDS011;5192;50.328;7.610;2023-09-12T03:42:01;17.77;;;13.77;;
10293;SDS011;5192;50.328;7.610;2023-09-12T03:44:28;24.25;;;20.40;;
10293;SDS011;5192;50.328;7.610;2023-09-12T03:46:54;19.95;;;14.15;;
10293;SDS011;5192;50.328;7.610;2023-09-12T03:49:23;16.98;;;14.55;;
10293;SDS011;5192;50.328;7.610;2023-09-12T03:51:51;16.45;;;13.60;;
10293;SDS011;5192;50.328;7.610;2023-09-12T03:54:18;18.20;;;14.70;;
10293;SDS011;5192;50.328;7.610;2023-09-12T03:56:46;16.15;;;13.40;;
10293;SDS011;5192;50.328;7.610;2023-09-12T03:59:13;16.77;;;13.52;;
10293;SDS011;5192;50.328;7.610;2023-09-12T04:01:41;16.10;;;14.50;;
10293;SDS011;5192;50.328;7.610;2023-09-12T04:04:07;18.52;;;15.18;;
10293;SDS011;5192;50.328;7.610;2023-09-12T04:06:33;15.48;;;13.82;;
10293;SDS011;5192;50.328;7.610;2023-09-12T04:09:01;20.92;;;14.95;;
10293;SDS011;5192;50.328;7.610;2023-09-12T04:11:27;16.55;;;14.55;;
10293;SDS011;5192;50.328;7.610;2023-09-12T04:13:55;17.23;;;15.52;;
10293;SDS011;5192;50.328;7.610;2023-09-12T04:16:22;17.05;;;14.57;;
10293;SDS011;5192;50.328;7.610;2023-09-12T04:18:50;17.38;;;15.52;;
10293;SDS011;5192;50.328;7.610;2023-09-12T04:21:17;18.50;;;14.35;;
10293;SDS011;5192;50.328;7.610;2023-09-12T04:23:43;16.88;;;15.05;;
10293;SDS011;5192;50.328;7.610;2023-09-12T04:26:12;17.38;;;12.85;;
10293;SDS011;5192;50.328;7.610;2023-09-12T04:28:40;21.42;;;15.40;;
10293;SDS011;5192;50.328;7.610;2023-09-12T04:31:06;15.80;;;13.88;;
10293;SDS011;5192;50.328;7.610;2023-09-12T04:33:34;17.63;;;15.77;;
10293;SDS011;5192;50.328;7.610;2023-09-12T04:36:02;15.43;;;13.88;;
10293;SDS011;5192;50.328;7.610;2023-09-12T04:38:30;17.60;;;15.30;;
10293;SDS011;5192;50.328;7.610;2023-09-12T04:41:02;16.40;;;14.68;;
10293;SDS011;5192;50.328;7.610;2023-09-12T04:43:32;19.92;;;14.57;;
10293;SDS011;5192;50.328;7.610;2023-09-12T04:45:59;18.20;;;14.90;;
10293;SDS011;5192;50.328;7.610;2023-09-12T04:48:27;16.95;;;15.35;;
10293;SDS011;5192;50.328;7.610;2023-09-12T04:50:55;17.98;;;14.48;;
10293;SDS011;5192;50.328;7.610;2023-09-12T04:53:23;17.95;;;14.40;;
10293;SDS011;5192;50.328;7.610;2023-09-12T04:55:52;18.90;;;15.05;;
10293;SDS011;5192;50.328;7.610;2023-09-12T04:58:19;18.85;;;14.35;;
10293;SDS011;5192;50.328;7.610;2023-09-12T05:00:46;18.73;;;15.32;;
10293;SDS011;5192;50.328;7.610;2023-09-12T05:03:14;18.27;;;15.45;;
10293;SDS011;5192;50.328;7.610;2023-09-12T05:05:41;21.27;;;15.35;;
10293;SDS011;5192;50.328;7.610;2023-09-12T05:08:13;18.20;;;15.73;;
10293;SDS011;5192;50.328;7.610;2023-09-12T05:10:39;16.20;;;14.52;;
10293;SDS011;5192;50.328;7.610;2023-09-12T05:13:10;17.63;;;14.40;;
10293;SDS011;5192;50.328;7.610;2023-09-12T05:15:35;16.00;;;14.38;;
10293;SDS011;5192;50.328;7.610;2023-09-12T05:18:06;18.60;;;14.30;;
10293;SDS011;5192;50.328;7.610;2023-09-12T05:20:33;16.95;;;13.75;;
10293;SDS011;5192;50.328;7.610;2023-09-12T05:23:02;15.73;;;14.05;;
10293;SDS011;5192;50.328;7.610;2023-09-12T05:25:30;20.20;;;14.40;;
10293;SDS011;5192;50.328;7.610;2023-09-12T05:27:58;17.98;;;14.80;;
10293;SDS011;5192;50.328;7.610;2023-09-12T05:30:24;19.98;;;15.13;;
10293;SDS011;5192;50.328;7.610;2023-09-12T05:32:52;15.93;;;14.05;;
10293;SDS011;5192;50.328;7.610;2023-09-12T05:35:18;15.00;;;13.43;;
10293;SDS011;5192;50.328;7.610;2023-09-12T05:37:45;16.08;;;14.38;;
10293;SDS011;5192;50.328;7.610;2023-09-12T05:40:13;16.02;;;14.35;;
10293;SDS011;5192;50.328;7.610;2023-09-12T05:42:41;17.23;;;13.55;;
10293;SDS011;5192;50.328;7.610;2023-09-12T05:45:08;16.98;;;14.32;;
10293;SDS011;5192;50.328;7.610;2023-09-12T05:47:36;16.55;;;14.77;;
10293;SDS011;5192;50.328;7.610;2023-09-12T05:50:01;15.75;;;13.85;;
10293;SDS011;5192;50.328;7.610;2023-09-12T05:52:33;14.35;;;12.85;;
10293;SDS011;5192;50.328;7.610;2023-09-12T05:55:00;17.45;;;14.27;;
10293;SDS011;5192;50.328;7.610;2023-09-12T05:57:28;15.30;;;13.65;;
10293;SDS011;5192;50.328;7.610;2023-09-12T06:00:01;16.27;;;14.57;;
10293;SDS011;5192;50.328;7.610;2023-09-12T06:02:31;14.88;;;13.23;;
10293;SDS011;5192;50.328;7.610;2023-09-12T06:05:00;16.65;;;14.73;;
10293;SDS011;5192;50.328;7.610;2023-09-12T06:07:26;16.55;;;14.70;;
10293;SDS011;5192;50.328;7.610;2023-09-12T06:09:53;16.80;;;14.00;;
10293;SDS011;5192;50.328;7.610;2023-09-12T06:12:20;18.02;;;14.40;;
10293;SDS011;5192;50.328;7.610;2023-09-12T06:14:47;15.68;;;14.00;;
10293;SDS011;5192;50.328;7.610;2023-09-12T06:17:13;16.70;;;13.13;;
10293;SDS011;5192;50.328;7.610;2023-09-12T06:19:39;16.27;;;13.27;;
10293;SDS011;5192;50.328;7.610;2023-09-12T06:22:08;15.23;;;13.65;;
10293;SDS011;5192;50.328;7.610;2023-09-12T06:24:33;16.55;;;13.05;;
10293;SDS011;5192;50.328;7.610;2023-09-12T06:27:01;15.82;;;14.18;;
10293;SDS011;5192;50.328;7.610;2023-09-12T06:29:27;17.73;;;13.52;;
10293;SDS011;5192;50.328;7.610;2023-09-12T06:31:57;15.93;;;14.27;;
10293;SDS011;5192;50.328;7.610;2023-09-12T06:34:26;16.60;;;14.77;;
10293;SDS011;5192;50.328;7.610;2023-09-12T06:36:52;16.27;;;13.88;;
10293;SDS011;5192;50.328;7.610;2023-09-12T06:39:20;16.60;;;14.50;;
10293;SDS011;5192;50.328;7.610;2023-09-12T06:41:50;20.92;;;16.02;;
10293;SDS011;5192;50.328;7.610;2023-09-12T06:44:16;18.13;;;15.70;;
10293;SDS011;5192;50.328;7.610;2023-09-12T06:46:45;19.92;;;16.15;;
10293;SDS011;5192;50.328;7.610;2023-09-12T06:49:12;19.88;;;17.00;;
10293;SDS011;5192;50.328;7.610;2023-09-12T06:51:38;19.08;;;16.58;;
10293;SDS011;5192;50.328;7.610;2023-09-12T06:54:07;17.38;;;15.57;;
10293;SDS011;5192;50.328;7.610;2023-09-12T06:56:35;20.98;;;16.33;;
10293;SDS011;5192;50.328;7.610;2023-09-12T06:59:03;18.65;;;16.60;;
10293;SDS011;5192;50.328;7.610;2023-09-12T07:01:31;22.83;;;16.70;;
10293;SDS011;5192;50.328;7.610;2023-09-12T07:03:58;21.98;;;16.10;;
10293;SDS011;5192;50.328;7.610;2023-09-12T07:06:27;18.05;;;16.15;;
10293;SDS011;5192;50.328;7.610;2023-09-12T07:08:55;17.92;;;16.02;;
10293;SDS011;5192;50.328;7.610;2023-09-12T07:11:22;19.23;;;16.52;;
10293;SDS011;5192;50.328;7.610;2023-09-12T07:13:52;22.42;;;17.55;;
10293;SDS011;5192;50.328;7.610;2023-09-12T07:16:19;20.52;;;16.27;;
10293;SDS011;5192;50.328;7.610;2023-09-12T07:18:48;21.13;;;17.98;;
10293;SDS011;5192;50.328;7.610;2023-09-12T07:21:14;25.00;;;19.00;;
10293;SDS011;5192;50.328;7.610;2023-09-12T07:23:42;20.88;;;17.10;;
10293;SDS011;5192;50.328;7.610;2023-09-12T07:26:14;25.15;;;18.40;;
10293;SDS011;5192;50.328;7.610;2023-09-12T07:28:44;20.70;;;17.23;;
10293;SDS011;5192;50.328;7.610;2023-09-12T07:31:12;21.83;;;18.17;;
10293;SDS011;5192;50.328;7.610;2023-09-12T07:33:40;21.95;;;18.10;;
10293;SDS011;5192;50.328;7.610;2023-09-12T07:36:07;20.60;;;16.40;;
10293;SDS011;5192;50.328;7.610;2023-09-12T07:38:35;25.42;;;18.52;;
10293;SDS011;5192;50.328;7.610;2023-09-12T07:41:03;23.90;;;17.83;;
10293;SDS011;5192;50.328;7.610;2023-09-12T07:43:31;22.70;;;17.65;;
10293;SDS011;5192;50.328;7.610;2023-09-12T07:45:58;22.00;;;16.98;;
10293;SDS011;5192;50.328;7.610;2023-09-12T07:48:25;23.77;;;19.05;;
10293;SDS011;5192;50.328;7.610;2023-09-12T07:50:50;25.80;;;18.00;;
10293;SDS011;5192;50.328;7.610;2023-09-12T07:53:18;23.38;;;18.92;;
10293;SDS011;5192;50.328;7.610;2023-09-12T07:55:45;26.35;;;19.80;;
10293;SDS011;5192;50.328;7.610;2023-09-12T07:58:13;26.17;;;20.20;;
10293;SDS011;5192;50.328;7.610;2023-09-12T08:00:39;26.38;;;19.90;;
10293;SDS011;5192;50.328;7.610;2023-09-12T08:03:06;23.92;;;20.42;;
10293;SDS011;5192;50.328;7.610;2023-09-12T08:05:34;25.92;;;19.88;;
10293;SDS011;5192;50.328;7.610;2023-09-12T08:08:01;28.13;;;21.20;;
10293;SDS011;5192;50.328;7.610;2023-09-12T08:10:28;25.73;;;20.48;;
10293;SDS011;5192;50.328;7.610;2023-09-12T08:12:55;23.95;;;20.75;;
10293;SDS011;5192;50.328;7.610;2023-09-12T08:15:23;27.02;;;21.13;;
10293;SDS011;5192;50.328;7.610;2023-09-12T08:17:50;24.85;;;21.42;;
10293;SDS011;5192;50.328;7.610;2023-09-12T08:20:20;22.85;;;20.13;;
10293;SDS011;5192;50.328;7.610;2023-09-12T08:22:47;32.00;;;24.02;;
10293;SDS011;5192;50.328;7.610;2023-09-12T08:25:15;28.45;;;23.50;;
10293;SDS011;5192;50.328;7.610;2023-09-12T08:27:43;31.92;;;22.83;;
10293;SDS011;5192;50.328;7.610;2023-09-12T08:30:11;30.23;;;20.73;;
10293;SDS011;5192;50.328;7.610;2023-09-12T08:32:42;26.92;;;22.48;;
10293;SDS011;5192;50.328;7.610;2023-09-12T08:35:11;30.73;;;23.48;;
10293;SDS011;5192;50.328;7.610;2023-09-12T08:37:40;28.67;;;20.95;;
10293;SDS011;5192;50.328;7.610;2023-09-12T08:40:09;31.83;;;24.88;;
10293;SDS011;5192;50.328;7.610;2023-09-12T08:42:42;35.38;;;26.25;;
10293;SDS011;5192;50.328;7.610;2023-09-12T08:45:17;33.17;;;26.80;;
10293;SDS011;5192;50.328;7.610;2023-09-12T08:47:47;30.77;;;24.50;;
10293;SDS011;5192;50.328;7.610;2023-09-12T08:50:20;30.20;;;23.90;;
10293;SDS011;5192;50.328;7.610;2023-09-12T08:52:50;28.05;;;21.70;;
10293;SDS011;5192;50.328;7.610;2023-09-12T08:55:17;27.75;;;21.33;;
10293;SDS011;5192;50.328;7.610;2023-09-12T08:57:44;29.75;;;21.38;;
10293;SDS011;5192;50.328;7.610;2023-09-12T09:00:16;29.95;;;23.38;;
10293;SDS011;5192;50.328;7.610;2023-09-12T09:02:43;28.60;;;22.95;;
10293;SDS011;5192;50.328;7.610;2023-09-12T09:05:10;30.20;;;24.33;;
10293;SDS011;5192;50.328;7.610;2023-09-12T09:10:22;31.08;;;24.15;;
10293;SDS011;5192;50.328;7.610;2023-09-12T09:12:49;28.15;;;22.10;;
10293;SDS011;5192;50.328;7.610;2023-09-12T09:15:23;27.83;;;21.80;;
10293;SDS011;5192;50.328;7.610;2023-09-12T09:17:56;28.77;;;24.15;;
10293;SDS011;5192;50.328;7.610;2023-09-12T09:20:29;29.35;;;22.25;;
10293;SDS011;5192;50.328;7.610;2023-09-12T09:23:07;27.60;;;23.30;;
10293;SDS011;5192;50.328;7.610;2023-09-12T09:25:42;28.85;;;23.23;;
10293;SDS011;5192;50.328;7.610;2023-09-12T09:28:18;29.77;;;25.58;;
10293;SDS011;5192;50.328;7.610;2023-09-12T09:30:48;30.95;;;25.67;;
10293;SDS011;5192;50.328;7.610;2023-09-12T09:33:17;26.70;;;22.08;;
10293;SDS011;5192;50.328;7.610;2023-09-12T09:35:45;29.77;;;23.25;;
10293;SDS011;5192;50.328;7.610;2023-09-12T09:38:13;25.92;;;22.30;;
10293;SDS011;5192;50.328;7.610;2023-09-12T09:40:46;26.92;;;23.95;;
10293;SDS011;5192;50.328;7.610;2023-09-12T09:43:18;28.35;;;23.23;;
10293;SDS011;5192;50.328;7.610;2023-09-12T09:45:51;27.63;;;22.77;;
10293;SDS011;5192;50.328;7.610;2023-09-12T09:48:19;29.35;;;23.08;;
10293;SDS011;5192;50.328;7.610;2023-09-12T09:51:03;26.90;;;22.83;;
10293;SDS011;5192;50.328;7.610;2023-09-12T09:53:30;27.75;;;22.13;;
10293;SDS011;5192;50.328;7.610;2023-09-12T10:01:29;24.85;;;21.63;;
10293;SDS011;5192;50.328;7.610;2023-09-12T10:04:18;24.48;;;20.60;;
10293;SDS011;5192;50.328;7.610;2023-09-12T10:06:46;23.65;;;20.27;;
10293;SDS011;5192;50.328;7.610;2023-09-12T10:09:14;21.92;;;18.63;;
10293;SDS011;5192;50.328;7.610;2023-09-12T10:11:43;23.58;;;20.23;;
10293;SDS011;5192;50.328;7.610;2023-09-12T10:14:18;25.08;;;19.95;;
10293;SDS011;5192;50.328;7.610;2023-09-12T10:16:46;27.77;;;20.52;;
10293;SDS011;5192;50.328;7.610;2023-09-12T10:19:18;21.90;;;18.15;;
10293;SDS011;5192;50.328;7.610;2023-09-12T10:25:13;22.58;;;19.95;;
10293;SDS011;5192;50.328;7.610;2023-09-12T10:27:43;24.27;;;19.75;;
10293;SDS011;5192;50.328;7.610;2023-09-12T10:30:10;25.25;;;19.55;;
10293;SDS011;5192;50.328;7.610;2023-09-12T10:32:39;23.00;;;19.00;;
10293;SDS011;5192;50.328;7.610;2023-09-12T10:35:11;22.15;;;19.67;;
10293;SDS011;5192;50.328;7.610;2023-09-12T10:37:40;20.75;;;17.40;;
10293;SDS011;5192;50.328;7.610;2023-09-12T10:40:09;22.35;;;18.17;;
10293;SDS011;5192;50.328;7.610;2023-09-12T10:42:37;24.25;;;17.88;;
10293;SDS011;5192;50.328;7.610;2023-09-12T10:45:07;19.95;;;16.20;;
10293;SDS011;5192;50.328;7.610;2023-09-12T10:47:36;23.83;;;17.73;;
10293;SDS011;5192;50.328;7.610;2023-09-12T10:50:06;18.38;;;16.38;;
10293;SDS011;5192;50.328;7.610;2023-09-12T10:52:33;18.77;;;15.85;;
10293;SDS011;5192;50.328;7.610;2023-09-12T10:55:06;20.15;;;16.83;;
10293;SDS011;5192;50.328;7.610;2023-09-12T11:00:44;22.75;;;18.08;;
10293;SDS011;5192;50.328;7.610;2023-09-12T11:06:54;19.30;;;17.17;;
10293;SDS011;5192;50.328;7.610;2023-09-12T11:09:23;20.27;;;18.13;;
10293;SDS011;5192;50.328;7.610;2023-09-12T11:12:03;20.17;;;18.00;;
10293;SDS011;5192;50.328;7.610;2023-09-12T11:14:31;20.10;;;17.83;;
10293;SDS011;5192;50.328;7.610;2023-09-12T11:19:45;21.55;;;19.15;;
10293;SDS011;5192;50.328;7.610;2023-09-12T11:22:30;20.30;;;17.35;;
10293;SDS011;5192;50.328;7.610;2023-09-12T11:25:02;23.92;;;17.40;;
10293;SDS011;5192;50.328;7.610;2023-09-12T11:27:32;20.05;;;17.60;;
10293;SDS011;5192;50.328;7.610;2023-09-12T11:30:10;20.15;;;17.80;;
10293;SDS011;5192;50.328;7.610;2023-09-12T11:32:37;20.52;;;17.63;;
10293;SDS011;5192;50.328;7.610;2023-09-12T11:35:05;21.23;;;18.38;;
10293;SDS011;5192;50.328;7.610;2023-09-12T11:37:34;19.02;;;16.95;;
10293;SDS011;5192;50.328;7.610;2023-09-12T11:40:17;20.13;;;16.42;;
10293;SDS011;5192;50.328;7.610;2023-09-12T11:42:51;18.63;;;16.52;;
10293;SDS011;5192;50.328;7.610;2023-09-12T11:45:18;21.95;;;16.08;;
10293;SDS011;5192;50.328;7.610;2023-09-12T11:47:46;20.30;;;16.60;;
10293;SDS011;5192;50.328;7.610;2023-09-12T11:53:09;20.98;;;16.25;;
10293;SDS011;5192;50.328;7.610;2023-09-12T11:58:22;19.65;;;15.98;;
10293;SDS011;5192;50.328;7.610;2023-09-12T12:00:50;19.73;;;16.15;;
10293;SDS011;5192;50.328;7.610;2023-09-12T12:03:28;21.95;;;14.75;;
10293;SDS011;5192;50.328;7.610;2023-09-12T12:05:55;20.73;;;17.20;;
10293;SDS011;5192;50.328;7.610;2023-09-12T12:08:21;19.48;;;17.10;;
10293;SDS011;5192;50.328;7.610;2023-09-12T12:10:52;20.90;;;16.58;;
10293;SDS011;5192;50.328;7.610;2023-09-12T12:13:20;18.70;;;15.57;;
10293;SDS011;5192;50.328;7.610;2023-09-12T12:15:52;19.25;;;17.00;;
10293;SDS011;5192;50.328;7.610;2023-09-12T12:18:20;19.67;;;16.35;;
10293;SDS011;5192;50.328;7.610;2023-09-12T12:20:47;18.30;;;16.35;;
10293;SDS011;5192;50.328;7.610;2023-09-12T12:23:14;19.75;;;16.25;;
10293;SDS011;5192;50.328;7.610;2023-09-12T12:25:42;23.05;;;17.40;;
10293;SDS011;5192;50.328;7.610;2023-09-12T12:28:10;20.17;;;16.85;;
10293;SDS011;5192;50.328;7.610;2023-09-12T12:30:38;18.67;;;15.27;;
10293;SDS011;5192;50.328;7.610;2023-09-12T12:33:09;20.48;;;16.85;;
10293;SDS011;5192;50.328;7.610;2023-09-12T12:35:35;18.90;;;16.52;;
10293;SDS011;5192;50.328;7.610;2023-09-12T12:38:02;19.02;;;15.07;;
10293;SDS011;5192;50.328;7.610;2023-09-12T12:40:29;19.02;;;15.05;;
10293;SDS011;5192;50.328;7.610;2023-09-12T12:42:55;18.77;;;16.95;;
10293;SDS011;5192;50.328;7.610;2023-09-12T12:45:23;18.08;;;16.20;;
10293;SDS011;5192;50.328;7.610;2023-09-12T12:47:58;18.52;;;16.25;;
10293;SDS011;5192;50.328;7.610;2023-09-12T12:50:26;18.42;;;16.38;;
10293;SDS011;5192;50.328;7.610;2023-09-12T12:52:52;20.25;;;18.00;;
10293;SDS011;5192;50.328;7.610;2023-09-12T12:55:19;17.90;;;16.00;;
10293;SDS011;5192;50.328;7.610;2023-09-12T12:57:48;18.48;;;16.58;;
10293;SDS011;5192;50.328;7.610;2023-09-12T13:00:14;18.40;;;16.40;;
10293;SDS011;5192;50.328;7.610;2023-09-12T13:02:43;21.85;;;15.80;;
10293;SDS011;5192;50.328;7.610;2023-09-12T13:05:29;17.23;;;15.40;;
10293;SDS011;5192;50.328;7.610;2023-09-12T13:07:56;22.13;;;17.13;;
10293;SDS011;5192;50.328;7.610;2023-09-12T13:10:23;20.60;;;15.98;;
10293;SDS011;5192;50.328;7.610;2023-09-12T13:12:51;19.30;;;17.27;;
10293;SDS011;5192;50.328;7.610;2023-09-12T13:15:16;19.13;;;16.10;;
10293;SDS011;5192;50.328;7.610;2023-09-12T13:17:45;22.00;;;18.13;;
10293;SDS011;5192;50.328;7.610;2023-09-12T13:20:12;18.65;;;16.10;;
10293;SDS011;5192;50.328;7.610;2023-09-12T13:22:40;21.25;;;16.42;;
10293;SDS011;5192;50.328;7.610;2023-09-12T13:25:08;19.55;;;17.42;;
10293;SDS011;5192;50.328;7.610;2023-09-12T13:27:36;18.08;;;16.25;;
10293;SDS011;5192;50.328;7.610;2023-09-12T13:30:06;19.10;;;17.00;;
10293;SDS011;5192;50.328;7.610;2023-09-12T13:32:32;18.95;;;15.90;;
10293;SDS011;5192;50.328;7.610;2023-09-12T13:34:58;19.60;;;16.20;;
10293;SDS011;5192;50.328;7.610;2023-09-12T13:37:27;18.45;;;16.40;;
10293;SDS011;5192;50.328;7.610;2023-09-12T13:39:55;18.88;;;16.92;;
10293;SDS011;5192;50.328;7.610;2023-09-12T13:42:25;19.08;;;17.02;;
10293;SDS011;5192;50.328;7.610;2023-09-12T13:44:56;17.23;;;15.52;;
10293;SDS011;5192;50.328;7.610;2023-09-12T13:47:22;20.90;;;15.98;;
10293;SDS011;5192;50.328;7.610;2023-09-12T13:49:49;19.35;;;16.02;;
10293;SDS011;5192;50.328;7.610;2023-09-12T13:52:21;18.25;;;15.68;;
10293;SDS011;5192;50.328;7.610;2023-09-12T13:54:50;18.98;;;16.30;;
10293;SDS011;5192;50.328;7.610;2023-09-12T13:57:19;18.55;;;16.58;;
10293;SDS011;5192;50.328;7.610;2023-09-12T13:59:45;17.20;;;15.50;;
10293;SDS011;5192;50.328;7.610;2023-09-12T14:02:12;17.65;;;14.65;;
10293;SDS011;5192;50.328;7.610;2023-09-12T14:04:40;18.30;;;16.35;;
10293;SDS011;5192;50.328;7.610;2023-09-12T14:07:08;19.05;;;17.17;;
10293;SDS011;5192;50.328;7.610;2023-09-12T14:09:34;17.00;;;15.30;;
10293;SDS011;5192;50.328;7.610;2023-09-12T14:12:02;18.10;;;16.23;;
10293;SDS011;5192;50.328;7.610;2023-09-12T14:14:32;17.85;;;15.98;;
10293;SDS011;5192;50.328;7.610;2023-09-12T14:16:58;17.63;;;15.93;;
10293;SDS011;5192;50.328;7.610;2023-09-12T14:19:25;18.02;;;16.23;;
10293;SDS011;5192;50.328;7.610;2023-09-12T14:21:54;18.23;;;16.15;;
10293;SDS011;5192;50.328;7.610;2023-09-12T14:24:19;20.13;;;16.50;;
10293;SDS011;5192;50.328;7.610;2023-09-12T14:26:46;18.55;;;15.35;;
10293;SDS011;5192;50.328;7.610;2023-09-12T14:29:14;18.08;;;15.80;;
10293;SDS011;5192;50.328;7.610;2023-09-12T14:31:39;17.27;;;15.57;;
10293;SDS011;5192;50.328;7.610;2023-09-12T14:34:14;16.95;;;15.35;;
10293;SDS011;5192;50.328;7.610;2023-09-12T14:36:41;18.13;;;14.82;;
10293;SDS011;5192;50.328;7.610;2023-09-12T14:39:07;18.35;;;16.30;;
10293;SDS011;5192;50.328;7.610;2023-09-12T14:41:33;17.58;;;15.45;;
10293;SDS011;5192;50.328;7.610;2023-09-12T14:44:00;17.70;;;15.57;;
10293;SDS011;5192;50.328;7.610;2023-09-12T14:46:29;18.08;;;15.45;;
10293;SDS011;5192;50.328;7.610;2023-09-12T14:48:56;17.83;;;16.02;;
10293;SDS011;5192;50.328;7.610;2023-09-12T14:51:23;17.10;;;15.40;;
10293;SDS011;5192;50.328;7.610;2023-09-12T14:53:51;19.08;;;16.70;;
10293;SDS011;5192;50.328;7.610;2023-09-12T14:56:21;18.50;;;16.80;;
10293;SDS011;5192;50.328;7.610;2023-09-12T14:58:50;18.92;;;16.00;;
10293;SDS011;5192;50.328;7.610;2023-09-12T15:01:17;18.27;;;16.67;;
10293;SDS011;5192;50.328;7.610;2023-09-12T15:03:44;18.00;;;16.30;;
10293;SDS011;5192;50.328;7.610;2023-09-12T15:06:10;18.67;;;16.90;;
10293;SDS011;5192;50.328;7.610;2023-09-12T15:08:36;18.00;;;16.20;;
10293;SDS011;5192;50.328;7.610;2023-09-12T15:11:03;18.67;;;16.58;;
10293;SDS011;5192;50.328;7.610;2023-09-12T15:13:31;19.17;;;15.95;;
10293;SDS011;5192;50.328;7.610;2023-09-12T15:15:57;17.27;;;15.52;;